sensor_id;sensor_type;location;lat;lon;timestamp;P1;durP1;ratioP1;P2;durP2;ratioP2
6149;SDS011;3106;42.670;23.318;2024-01-07T00:00:36;54.10;;;24.00;;
6149;SDS011;3106;42.670;23.318;2024-01-07T00:03:04;42.90;;;22.00;;
6149;SDS011;3106;42.670;23.318;2024-01-07T00:05:32;48.70;;;22.37;;
6149;SDS011;3106;42.670;23.318;2024-01-07T00:08:01;44.90;;;21.10;;
6149;SDS011;3106;42.670;23.318;2024-01-07T00:10:28;45.20;;;21.23;;
6149;SDS011;3106;42.670;23.318;2024-01-07T00:12:55;46.30;;;20.50;;
6149;SDS011;3106;42.670;23.318;2024-01-07T00:15:21;42.70;;;20.53;;
6149;SDS011;3106;42.670;23.318;2024-01-07T00:17:51;39.60;;;19.80;;
6149;SDS011;3106;42.670;23.318;2024-01-07T00:20:19;39.33;;;19.20;;
6149;SDS011;3106;42.670;23.318;2024-01-07T00:22:48;39.00;;;20.10;;
6149;SDS011;3106;42.670;23.318;2024-01-07T00:25:14;42.93;;;21.53;;
6149;SDS011;3106;42.670;23.318;2024-01-07T00:27:43;36.67;;;18.60;;
6149;SDS011;3106;42.670;23.318;2024-01-07T00:30:10;36.57;;;19.87;;
6149;SDS011;3106;42.670;23.318;2024-01-07T00:32:38;40.60;;;20.63;;
6149;SDS011;3106;42.670;23.318;2024-01-07T00:35:06;44.33;;;21.80;;
6149;SDS011;3106;42.670;23.318;2024-01-07T00:37:33;43.20;;;20.80;;
6149;SDS011;3106;42.670;23.318;2024-01-07T00:40:01;41.20;;;20.40;;
6149;SDS011;3106;42.670;23.318;2024-01-07T00:42:28;45.07;;;21.17;;
6149;SDS011;3106;42.670;23.318;2024-01-07T00:44:55;54.73;;;21.27;;
6149;SDS011;3106;42.670;23.318;2024-01-07T00:47:22;43.60;;;22.60;;
6149;SDS011;3106;42.670;23.318;2024-01-07T00:49:49;48.70;;;22.43;;
6149;SDS011;3106;42.670;23.318;2024-01-07T00:52:15;50.27;;;24.27;;
6149;SDS011;3106;42.670;23.318;2024-01-07T00:54:42;53.13;;;23.03;;
6149;SDS011;3106;42.670;23.318;2024-01-07T00:57:11;53.30;;;23.30;;
6149;SDS011;3106;42.670;23.318;2024-01-07T00:59:38;54.47;;;24.27;;
6149;SDS011;3106;42.670;23.318;2024-01-07T01:02:05;53.13;;;22.30;;
6149;SDS011;3106;42.670;23.318;2024-01-07T01:04:32;45.97;;;22.23;;
6149;SDS011;3106;42.670;23.318;2024-01-07T01:06:59;52.33;;;22.50;;
6149;SDS011;3106;42.670;23.318;2024-01-07T01:09:27;47.00;;;21.40;;
6149;SDS011;3106;42.670;23.318;2024-01-07T01:11:54;51.23;;;23.23;;
6149;SDS011;3106;42.670;23.318;2024-01-07T01:14:22;48.60;;;23.43;;
6149;SDS011;3106;42.670;23.318;2024-01-07T01:16:48;44.20;;;22.90;;
6149;SDS011;3106;42.670;23.318;2024-01-07T01:19:15;49.47;;;23.77;;
6149;SDS011;3106;42.670;23.318;2024-01-07T01:21:43;63.97;;;24.27;;
6149;SDS011;3106;42.670;23.318;2024-01-07T01:24:09;41.73;;;19.83;;
6149;SDS011;3106;42.670;23.318;2024-01-07T01:26:37;42.53;;;18.33;;
6149;SDS011;3106;42.670;23.318;2024-01-07T01:29:05;47.13;;;21.53;;
6149;SDS011;3106;42.670;23.318;2024-01-07T01:31:33;48.47;;;23.13;;
6149;SDS011;3106;42.670;23.318;2024-01-07T01:33:59;54.67;;;24.03;;
6149;SDS011;3106;42.670;23.318;2024-01-07T01:36:26;51.93;;;24.00;;
6149;SDS011;3106;42.670;23.318;2024-01-07T01:38:53;45.87;;;22.50;;
6149;SDS011;3106;42.670;23.318;2024-01-07T01:41:20;44.80;;;21.20;;
6149;SDS011;3106;42.670;23.318;2024-01-07T01:43:49;46.53;;;20.50;;
6149;SDS011;3106;42.670;23.318;2024-01-07T01:46:16;39.17;;;20.37;;
6149;SDS011;3106;42.670;23.318;2024-01-07T01:48:44;39.67;;;17.80;;
6149;SDS011;3106;42.670;23.318;2024-01-07T01:51:11;25.43;;;13.97;;
6149;SDS011;3106;42.670;23.318;2024-01-07T01:53:39;36.63;;;18.07;;
6149;SDS011;3106;42.670;23.318;2024-01-07T01:56:06;42.80;;;20.00;;
6149;SDS011;3106;42.670;23.318;2024-01-07T01:58:33;36.00;;;16.53;;
6149;SDS011;3106;42.670;23.318;2024-01-07T02:01:00;43.20;;;17.70;;
6149;SDS011;3106;42.670;23.318;2024-01-07T02:03:27;35.97;;;18.13;;
6149;SDS011;3106;42.670;23.318;2024-01-07T02:05:56;35.17;;;15.30;;
6149;SDS011;3106;42.670;23.318;2024-01-07T02:08:23;32.90;;;15.03;;
6149;SDS011;3106;42.670;23.318;2024-01-07T02:10:53;31.50;;;15.10;;
6149;SDS011;3106;42.670;23.318;2024-01-07T02:13:22;33.93;;;16.60;;
6149;SDS011;3106;42.670;23.318;2024-01-07T02:15:50;41.03;;;16.87;;
6149;SDS011;3106;42.670;23.318;2024-01-07T02:18:17;35.17;;;15.47;;
6149;SDS011;3106;42.670;23.318;2024-01-07T02:20:44;36.47;;;14.20;;
6149;SDS011;3106;42.670;23.318;2024-01-07T02:23:12;19.80;;;10.93;;
6149;SDS011;3106;42.670;23.318;2024-01-07T02:25:41;19.87;;;8.97;;
6149;SDS011;3106;42.670;23.318;2024-01-07T02:28:08;17.00;;;8.67;;
6149;SDS011;3106;42.670;23.318;2024-01-07T02:30:35;20.20;;;8.70;;
6149;SDS011;3106;42.670;23.318;2024-01-07T02:33:04;20.50;;;9.30;;
6149;SDS011;3106;42.670;23.318;2024-01-07T02:35:32;22.67;;;10.47;;
6149;SDS011;3106;42.670;23.318;2024-01-07T02:37:59;34.27;;;18.60;;
6149;SDS011;3106;42.670;23.318;2024-01-07T02:40:26;36.53;;;19.20;;
6149;SDS011;3106;42.670;23.318;2024-01-07T02:42:54;28.80;;;16.03;;
6149;SDS011;3106;42.670;23.318;2024-01-07T02:45:21;33.73;;;17.33;;
6149;SDS011;3106;42.670;23.318;2024-01-07T02:47:48;28.10;;;14.90;;
6149;SDS011;3106;42.670;23.318;2024-01-07T02:50:15;35.80;;;15.73;;
6149;SDS011;3106;42.670;23.318;2024-01-07T02:52:42;41.93;;;18.10;;
6149;SDS011;3106;42.670;23.318;2024-01-07T02:55:10;33.53;;;15.40;;
6149;SDS011;3106;42.670;23.318;2024-01-07T02:57:37;25.30;;;12.63;;
6149;SDS011;3106;42.670;23.318;2024-01-07T03:00:06;22.23;;;11.33;;
6149;SDS011;3106;42.670;23.318;2024-01-07T03:02:33;25.43;;;12.47;;
6149;SDS011;3106;42.670;23.318;2024-01-07T03:05:00;25.70;;;12.83;;
6149;SDS011;3106;42.670;23.318;2024-01-07T03:07:27;19.23;;;10.27;;
6149;SDS011;3106;42.670;23.318;2024-01-07T03:09:54;17.47;;;9.63;;
6149;SDS011;3106;42.670;23.318;2024-01-07T03:12:20;9.70;;;6.63;;
6149;SDS011;3106;42.670;23.318;2024-01-07T03:14:47;11.43;;;6.90;;
6149;SDS011;3106;42.670;23.318;2024-01-07T03:17:16;11.60;;;6.80;;
6149;SDS011;3106;42.670;23.318;2024-01-07T03:19:43;33.37;;;15.47;;
6149;SDS011;3106;42.670;23.318;2024-01-07T03:22:09;29.53;;;16.23;;
6149;SDS011;3106;42.670;23.318;2024-01-07T03:24:36;30.87;;;16.10;;
6149;SDS011;3106;42.670;23.318;2024-01-07T03:27:03;30.30;;;16.10;;
6149;SDS011;3106;42.670;23.318;2024-01-07T03:29:30;24.70;;;13.50;;
6149;SDS011;3106;42.670;23.318;2024-01-07T03:31:58;25.77;;;13.23;;
6149;SDS011;3106;42.670;23.318;2024-01-07T03:34:28;26.53;;;13.30;;
6149;SDS011;3106;42.670;23.318;2024-01-07T03:36:54;27.70;;;14.00;;
6149;SDS011;3106;42.670;23.318;2024-01-07T03:39:22;21.80;;;12.87;;
6149;SDS011;3106;42.670;23.318;2024-01-07T03:41:54;24.60;;;12.30;;
6149;SDS011;3106;42.670;23.318;2024-01-07T03:44:21;23.17;;;12.17;;
6149;SDS011;3106;42.670;23.318;2024-01-07T03:46:48;18.33;;;10.03;;
6149;SDS011;3106;42.670;23.318;2024-01-07T03:49:16;21.63;;;10.60;;
6149;SDS011;3106;42.670;23.318;2024-01-07T03:51:45;18.53;;;9.47;;
6149;SDS011;3106;42.670;23.318;2024-01-07T03:54:12;29.93;;;11.10;;
6149;SDS011;3106;42.670;23.318;2024-01-07T03:56:38;15.60;;;8.73;;
6149;SDS011;3106;42.670;23.318;2024-01-07T03:59:05;15.93;;;8.60;;
6149;SDS011;3106;42.670;23.318;2024-01-07T04:01:32;16.03;;;7.50;;
6149;SDS011;3106;42.670;23.318;2024-01-07T04:04:00;12.13;;;7.43;;
6149;SDS011;3106;42.670;23.318;2024-01-07T04:06:28;14.90;;;7.60;;
6149;SDS011;3106;42.670;23.318;2024-01-07T04:08:56;13.23;;;7.00;;
6149;SDS011;3106;42.670;23.318;2024-01-07T04:11:23;10.83;;;6.30;;
6149;SDS011;3106;42.670;23.318;2024-01-07T04:13:50;15.93;;;8.00;;
6149;SDS011;3106;42.670;23.318;2024-01-07T04:16:17;17.83;;;8.03;;
6149;SDS011;3106;42.670;23.318;2024-01-07T04:18:44;10.53;;;6.03;;
6149;SDS011;3106;42.670;23.318;2024-01-07T04:21:11;13.63;;;6.30;;
6149;SDS011;3106;42.670;23.318;2024-01-07T04:23:38;11.50;;;6.40;;
6149;SDS011;3106;42.670;23.318;2024-01-07T04:26:08;15.13;;;7.43;;
6149;SDS011;3106;42.670;23.318;2024-01-07T04:28:35;15.97;;;7.47;;
6149;SDS011;3106;42.670;23.318;2024-01-07T04:31:01;13.70;;;6.57;;
6149;SDS011;3106;42.670;23.318;2024-01-07T04:33:28;17.43;;;7.37;;
6149;SDS011;3106;42.670;23.318;2024-01-07T04:35:57;18.47;;;7.40;;
6149;SDS011;3106;42.670;23.318;2024-01-07T04:38:25;13.57;;;7.07;;
6149;SDS011;3106;42.670;23.318;2024-01-07T04:40:52;12.67;;;7.40;;
6149;SDS011;3106;42.670;23.318;2024-01-07T04:43:21;16.20;;;7.30;;
6149;SDS011;3106;42.670;23.318;2024-01-07T04:45:47;9.77;;;5.87;;
6149;SDS011;3106;42.670;23.318;2024-01-07T04:48:14;15.43;;;8.07;;
6149;SDS011;3106;42.670;23.318;2024-01-07T04:50:41;16.93;;;7.00;;
6149;SDS011;3106;42.670;23.318;2024-01-07T04:53:08;13.43;;;7.73;;
6149;SDS011;3106;42.670;23.318;2024-01-07T04:55:35;12.67;;;7.67;;
6149;SDS011;3106;42.670;23.318;2024-01-07T04:58:02;16.60;;;8.07;;
6149;SDS011;3106;42.670;23.318;2024-01-07T05:00:31;14.77;;;8.30;;
6149;SDS011;3106;42.670;23.318;2024-01-07T05:02:58;12.77;;;7.67;;
6149;SDS011;3106;42.670;23.318;2024-01-07T05:05:24;14.60;;;8.10;;
6149;SDS011;3106;42.670;23.318;2024-01-07T05:07:51;13.30;;;8.60;;
6149;SDS011;3106;42.670;23.318;2024-01-07T05:10:18;10.23;;;6.20;;
6149;SDS011;3106;42.670;23.318;2024-01-07T05:12:44;13.87;;;7.33;;
6149;SDS011;3106;42.670;23.318;2024-01-07T05:15:11;15.57;;;8.50;;
6149;SDS011;3106;42.670;23.318;2024-01-07T05:17:39;12.27;;;7.50;;
6149;SDS011;3106;42.670;23.318;2024-01-07T05:20:06;13.10;;;7.60;;
6149;SDS011;3106;42.670;23.318;2024-01-07T05:22:34;14.30;;;8.47;;
6149;SDS011;3106;42.670;23.318;2024-01-07T05:25:01;13.20;;;7.80;;
6149;SDS011;3106;42.670;23.318;2024-01-07T05:27:28;12.97;;;8.67;;
6149;SDS011;3106;42.670;23.318;2024-01-07T05:29:55;12.03;;;7.70;;
6149;SDS011;3106;42.670;23.318;2024-01-07T05:32:22;15.63;;;8.43;;
6149;SDS011;3106;42.670;23.318;2024-01-07T05:34:50;19.57;;;8.97;;
6149;SDS011;3106;42.670;23.318;2024-01-07T05:37:17;16.63;;;8.80;;
6149;SDS011;3106;42.670;23.318;2024-01-07T05:39:44;15.57;;;8.93;;
6149;SDS011;3106;42.670;23.318;2024-01-07T05:42:12;14.73;;;8.37;;
6149;SDS011;3106;42.670;23.318;2024-01-07T05:44:38;17.60;;;9.53;;
6149;SDS011;3106;42.670;23.318;2024-01-07T05:47:06;17.83;;;9.80;;
6149;SDS011;3106;42.670;23.318;2024-01-07T05:49:32;14.23;;;8.60;;
6149;SDS011;3106;42.670;23.318;2024-01-07T05:52:00;20.90;;;8.90;;
6149;SDS011;3106;42.670;23.318;2024-01-07T05:54:27;20.57;;;8.30;;
6149;SDS011;3106;42.670;23.318;2024-01-07T05:56:54;19.53;;;9.57;;
6149;SDS011;3106;42.670;23.318;2024-01-07T05:59:21;22.70;;;9.77;;
6149;SDS011;3106;42.670;23.318;2024-01-07T06:01:48;13.80;;;8.20;;
6149;SDS011;3106;42.670;23.318;2024-01-07T06:04:18;19.40;;;8.87;;
6149;SDS011;3106;42.670;23.318;2024-01-07T06:06:45;19.63;;;9.70;;
6149;SDS011;3106;42.670;23.318;2024-01-07T06:09:13;17.50;;;9.70;;
6149;SDS011;3106;42.670;23.318;2024-01-07T06:11:40;21.70;;;9.03;;
6149;SDS011;3106;42.670;23.318;2024-01-07T06:14:06;13.20;;;8.23;;
6149;SDS011;3106;42.670;23.318;2024-01-07T06:16:34;16.93;;;9.17;;
6149;SDS011;3106;42.670;23.318;2024-01-07T06:19:03;15.67;;;9.30;;
6149;SDS011;3106;42.670;23.318;2024-01-07T06:21:32;18.00;;;10.40;;
6149;SDS011;3106;42.670;23.318;2024-01-07T06:24:04;17.40;;;8.70;;
6149;SDS011;3106;42.670;23.318;2024-01-07T06:26:33;16.57;;;9.53;;
6149;SDS011;3106;42.670;23.318;2024-01-07T06:29:00;19.17;;;11.07;;
6149;SDS011;3106;42.670;23.318;2024-01-07T06:31:28;17.17;;;10.00;;
6149;SDS011;3106;42.670;23.318;2024-01-07T06:33:55;17.80;;;10.23;;
6149;SDS011;3106;42.670;23.318;2024-01-07T06:36:22;21.63;;;11.23;;
6149;SDS011;3106;42.670;23.318;2024-01-07T06:38:51;16.33;;;10.10;;
6149;SDS011;3106;42.670;23.318;2024-01-07T06:41:18;21.63;;;12.13;;
6149;SDS011;3106;42.670;23.318;2024-01-07T06:43:47;20.57;;;11.03;;
6149;SDS011;3106;42.670;23.318;2024-01-07T06:46:15;18.57;;;11.40;;
6149;SDS011;3106;42.670;23.318;2024-01-07T06:48:42;21.40;;;11.60;;
6149;SDS011;3106;42.670;23.318;2024-01-07T06:51:08;21.40;;;11.40;;
6149;SDS011;3106;42.670;23.318;2024-01-07T06:53:35;28.27;;;12.90;;
6149;SDS011;3106;42.670;23.318;2024-01-07T06:56:02;28.17;;;12.87;;
6149;SDS011;3106;42.670;23.318;2024-01-07T06:58:33;23.80;;;12.90;;
6149;SDS011;3106;42.670;23.318;2024-01-07T07:01:01;27.10;;;13.00;;
6149;SDS011;3106;42.670;23.318;2024-01-07T07:03:30;24.83;;;13.70;;
6149;SDS011;3106;42.670;23.318;2024-01-07T07:05:57;24.73;;;12.63;;
6149;SDS011;3106;42.670;23.318;2024-01-07T07:08:26;21.60;;;12.50;;
6149;SDS011;3106;42.670;23.318;2024-01-07T07:11:13;23.23;;;12.60;;
6149;SDS011;3106;42.670;23.318;2024-01-07T07:23:06;19.97;;;11.23;;
6149;SDS011;3106;42.670;23.318;2024-01-07T07:25:36;25.00;;;11.20;;
6149;SDS011;3106;42.670;23.318;2024-01-07T07:28:23;18.50;;;10.20;;
6149;SDS011;3106;42.670;23.318;2024-01-07T07:31:14;19.27;;;10.43;;
6149;SDS011;3106;42.670;23.318;2024-01-07T07:33:42;20.40;;;9.70;;
6149;SDS011;3106;42.670;23.318;2024-01-07T07:36:11;16.27;;;9.83;;
6149;SDS011;3106;42.670;23.318;2024-01-07T07:38:39;17.40;;;10.40;;
6149;SDS011;3106;42.670;23.318;2024-01-07T07:41:06;21.10;;;10.00;;
6149;SDS011;3106;42.670;23.318;2024-01-07T07:43:34;25.80;;;11.90;;
6149;SDS011;3106;42.670;23.318;2024-01-07T07:46:00;17.80;;;10.03;;
6149;SDS011;3106;42.670;23.318;2024-01-07T07:48:28;15.60;;;8.57;;
6149;SDS011;3106;42.670;23.318;2024-01-07T07:50:55;13.03;;;7.37;;
6149;SDS011;3106;42.670;23.318;2024-01-07T07:53:23;19.43;;;8.10;;
6149;SDS011;3106;42.670;23.318;2024-01-07T07:55:51;14.50;;;8.40;;
6149;SDS011;3106;42.670;23.318;2024-01-07T07:58:18;13.00;;;6.27;;
6149;SDS011;3106;42.670;23.318;2024-01-07T08:00:45;9.47;;;5.50;;
6149;SDS011;3106;42.670;23.318;2024-01-07T08:03:12;14.47;;;7.73;;
6149;SDS011;3106;42.670;23.318;2024-01-07T08:05:39;14.23;;;7.37;;
6149;SDS011;3106;42.670;23.318;2024-01-07T08:08:07;18.10;;;9.17;;
6149;SDS011;3106;42.670;23.318;2024-01-07T08:10:35;14.90;;;8.40;;
6149;SDS011;3106;42.670;23.318;2024-01-07T08:13:02;14.13;;;8.50;;
6149;SDS011;3106;42.670;23.318;2024-01-07T08:15:29;19.80;;;8.80;;
6149;SDS011;3106;42.670;23.318;2024-01-07T08:17:57;15.30;;;8.70;;
6149;SDS011;3106;42.670;23.318;2024-01-07T08:20:24;15.73;;;8.20;;
6149;SDS011;3106;42.670;23.318;2024-01-07T08:22:51;14.10;;;7.93;;
6149;SDS011;3106;42.670;23.318;2024-01-07T08:25:17;11.67;;;7.57;;
6149;SDS011;3106;42.670;23.318;2024-01-07T08:27:46;21.07;;;9.47;;
6149;SDS011;3106;42.670;23.318;2024-01-07T08:30:13;13.93;;;8.40;;
6149;SDS011;3106;42.670;23.318;2024-01-07T08:32:40;191.73;;;22.70;;
6149;SDS011;3106;42.670;23.318;2024-01-07T08:35:08;18.13;;;8.70;;
6149;SDS011;3106;42.670;23.318;2024-01-07T08:37:35;18.13;;;9.47;;
6149;SDS011;3106;42.670;23.318;2024-01-07T08:40:02;17.03;;;9.60;;
6149;SDS011;3106;42.670;23.318;2024-01-07T08:42:32;19.23;;;10.47;;
6149;SDS011;3106;42.670;23.318;2024-01-07T08:45:00;20.03;;;10.70;;
6149;SDS011;3106;42.670;23.318;2024-01-07T08:47:29;15.80;;;9.80;;
6149;SDS011;3106;42.670;23.318;2024-01-07T08:49:56;19.63;;;10.57;;
6149;SDS011;3106;42.670;23.318;2024-01-07T08:52:25;19.60;;;10.37;;
6149;SDS011;3106;42.670;23.318;2024-01-07T08:54:52;52.17;;;12.17;;
6149;SDS011;3106;42.670;23.318;2024-01-07T08:57:20;22.50;;;10.53;;
6149;SDS011;3106;42.670;23.318;2024-01-07T08:59:47;42.10;;;11.00;;
6149;SDS011;3106;42.670;23.318;2024-01-07T09:02:15;21.63;;;10.10;;
6149;SDS011;3106;42.670;23.318;2024-01-07T09:04:42;20.30;;;9.40;;
6149;SDS011;3106;42.670;23.318;2024-01-07T09:07:08;48.93;;;12.27;;
6149;SDS011;3106;42.670;23.318;2024-01-07T09:09:35;13.93;;;8.30;;
6149;SDS011;3106;42.670;23.318;2024-01-07T09:12:02;108.97;;;15.30;;
6149;SDS011;3106;42.670;23.318;2024-01-07T09:14:29;23.03;;;11.57;;
6149;SDS011;3106;42.670;23.318;2024-01-07T09:16:57;23.53;;;10.70;;
6149;SDS011;3106;42.670;23.318;2024-01-07T09:19:25;31.47;;;12.20;;
6149;SDS011;3106;42.670;23.318;2024-01-07T09:21:52;25.23;;;11.80;;
6149;SDS011;3106;42.670;23.318;2024-01-07T09:24:19;32.53;;;12.47;;
6149;SDS011;3106;42.670;23.318;2024-01-07T09:26:46;36.70;;;11.53;;
6149;SDS011;3106;42.670;23.318;2024-01-07T09:29:13;18.80;;;9.60;;
6149;SDS011;3106;42.670;23.318;2024-01-07T09:31:40;29.60;;;12.07;;
6149;SDS011;3106;42.670;23.318;2024-01-07T09:34:07;28.63;;;12.70;;
6149;SDS011;3106;42.670;23.318;2024-01-07T09:36:35;25.47;;;10.77;;
6149;SDS011;3106;42.670;23.318;2024-01-07T09:39:03;22.87;;;11.33;;
6149;SDS011;3106;42.670;23.318;2024-01-07T09:41:31;21.50;;;11.77;;
6149;SDS011;3106;42.670;23.318;2024-01-07T09:43:59;24.10;;;13.30;;
6149;SDS011;3106;42.670;23.318;2024-01-07T09:46:26;23.13;;;12.20;;
6149;SDS011;3106;42.670;23.318;2024-01-07T09:48:55;18.63;;;11.20;;
6149;SDS011;3106;42.670;23.318;2024-01-07T09:51:22;20.27;;;11.80;;
6149;SDS011;3106;42.670;23.318;2024-01-07T09:53:50;22.30;;;10.93;;
6149;SDS011;3106;42.670;23.318;2024-01-07T09:56:25;22.33;;;10.40;;
6149;SDS011;3106;42.670;23.318;2024-01-07T09:58:54;17.93;;;10.00;;
6149;SDS011;3106;42.670;23.318;2024-01-07T10:01:21;16.63;;;10.10;;
6149;SDS011;3106;42.670;23.318;2024-01-07T10:03:51;20.43;;;10.27;;
6149;SDS011;3106;42.670;23.318;2024-01-07T10:06:18;21.03;;;11.43;;
6149;SDS011;3106;42.670;23.318;2024-01-07T10:08:45;18.83;;;11.03;;
6149;SDS011;3106;42.670;23.318;2024-01-07T10:11:14;24.47;;;11.33;;
6149;SDS011;3106;42.670;23.318;2024-01-07T10:13:41;25.53;;;10.60;;
6149;SDS011;3106;42.670;23.318;2024-01-07T10:16:08;20.57;;;10.43;;
6149;SDS011;3106;42.670;23.318;2024-01-07T10:18:35;20.20;;;10.40;;
6149;SDS011;3106;42.670;23.318;2024-01-07T10:21:03;21.00;;;10.93;;
6149;SDS011;3106;42.670;23.318;2024-01-07T10:23:30;20.93;;;10.80;;
6149;SDS011;3106;42.670;23.318;2024-01-07T10:25:57;20.43;;;10.07;;
6149;SDS011;3106;42.670;23.318;2024-01-07T10:28:25;20.93;;;9.30;;
6149;SDS011;3106;42.670;23.318;2024-01-07T10:30:55;17.70;;;9.30;;
6149;SDS011;3106;42.670;23.318;2024-01-07T10:33:22;17.00;;;9.13;;
6149;SDS011;3106;42.670;23.318;2024-01-07T10:35:52;20.73;;;8.10;;
6149;SDS011;3106;42.670;23.318;2024-01-07T10:38:23;14.93;;;8.73;;
6149;SDS011;3106;42.670;23.318;2024-01-07T10:40:50;14.60;;;7.60;;
6149;SDS011;3106;42.670;23.318;2024-01-07T10:43:21;12.53;;;7.17;;
6149;SDS011;3106;42.670;23.318;2024-01-07T10:45:49;12.10;;;7.17;;
6149;SDS011;3106;42.670;23.318;2024-01-07T10:48:17;14.00;;;7.93;;
6149;SDS011;3106;42.670;23.318;2024-01-07T10:50:45;13.80;;;8.07;;
6149;SDS011;3106;42.670;23.318;2024-01-07T10:53:17;18.90;;;6.30;;
6149;SDS011;3106;42.670;23.318;2024-01-07T10:55:48;7.00;;;4.50;;
6149;SDS011;3106;42.670;23.318;2024-01-07T10:58:21;11.40;;;6.20;;
6149;SDS011;3106;42.670;23.318;2024-01-07T11:00:50;11.33;;;5.50;;
6149;SDS011;3106;42.670;23.318;2024-01-07T11:03:20;11.77;;;5.27;;
6149;SDS011;3106;42.670;23.318;2024-01-07T11:05:54;191.07;;;19.17;;
6149;SDS011;3106;42.670;23.318;2024-01-07T11:08:26;18.20;;;6.93;;
6149;SDS011;3106;42.670;23.318;2024-01-07T11:11:01;31.90;;;9.83;;
6149;SDS011;3106;42.670;23.318;2024-01-07T11:13:32;13.63;;;7.17;;
6149;SDS011;3106;42.670;23.318;2024-01-07T11:16:02;17.63;;;7.77;;
6149;SDS011;3106;42.670;23.318;2024-01-07T11:18:30;20.20;;;8.03;;
6149;SDS011;3106;42.670;23.318;2024-01-07T11:20:59;17.50;;;7.10;;
6149;SDS011;3106;42.670;23.318;2024-01-07T11:23:27;19.50;;;6.77;;
6149;SDS011;3106;42.670;23.318;2024-01-07T11:25:56;10.63;;;6.07;;
6149;SDS011;3106;42.670;23.318;2024-01-07T11:28:43;17.30;;;5.47;;
6149;SDS011;3106;42.670;23.318;2024-01-07T11:31:12;9.57;;;5.50;;
6149;SDS011;3106;42.670;23.318;2024-01-07T11:33:39;10.90;;;5.53;;
6149;SDS011;3106;42.670;23.318;2024-01-07T11:36:08;19.33;;;6.40;;
6149;SDS011;3106;42.670;23.318;2024-01-07T11:38:37;18.53;;;5.60;;
6149;SDS011;3106;42.670;23.318;2024-01-07T11:41:09;15.27;;;4.77;;
6149;SDS011;3106;42.670;23.318;2024-01-07T11:43:53;79.37;;;9.23;;
6149;SDS011;3106;42.670;23.318;2024-01-07T11:46:26;18.87;;;5.60;;
6149;SDS011;3106;42.670;23.318;2024-01-07T11:48:56;14.13;;;4.33;;
6149;SDS011;3106;42.670;23.318;2024-01-07T11:51:24;13.23;;;5.40;;
6149;SDS011;3106;42.670;23.318;2024-01-07T11:53:52;13.10;;;5.43;;
6149;SDS011;3106;42.670;23.318;2024-01-07T11:56:27;11.97;;;5.53;;
6149;SDS011;3106;42.670;23.318;2024-01-07T11:59:10;18.60;;;6.00;;
6149;SDS011;3106;42.670;23.318;2024-01-07T12:01:39;13.27;;;5.03;;
6149;SDS011;3106;42.670;23.318;2024-01-07T12:04:07;12.77;;;5.00;;
6149;SDS011;3106;42.670;23.318;2024-01-07T12:06:35;13.60;;;5.47;;
6149;SDS011;3106;42.670;23.318;2024-01-07T12:09:02;12.27;;;5.57;;
6149;SDS011;3106;42.670;23.318;2024-01-07T12:11:30;25.23;;;6.70;;
6149;SDS011;3106;42.670;23.318;2024-01-07T12:13:57;24.43;;;6.80;;
6149;SDS011;3106;42.670;23.318;2024-01-07T12:16:34;18.67;;;7.00;;
6149;SDS011;3106;42.670;23.318;2024-01-07T12:19:05;20.73;;;6.20;;
6149;SDS011;3106;42.670;23.318;2024-01-07T12:21:31;15.43;;;6.73;;
6149;SDS011;3106;42.670;23.318;2024-01-07T12:23:58;32.33;;;11.73;;
6149;SDS011;3106;42.670;23.318;2024-01-07T12:26:25;20.60;;;7.13;;
6149;SDS011;3106;42.670;23.318;2024-01-07T12:28:53;14.70;;;8.30;;
6149;SDS011;3106;42.670;23.318;2024-01-07T12:31:22;12.80;;;6.93;;
6149;SDS011;3106;42.670;23.318;2024-01-07T12:33:49;12.80;;;6.77;;
6149;SDS011;3106;42.670;23.318;2024-01-07T12:36:21;14.57;;;6.70;;
6149;SDS011;3106;42.670;23.318;2024-01-07T12:38:48;13.73;;;7.60;;
6149;SDS011;3106;42.670;23.318;2024-01-07T12:41:16;14.03;;;6.87;;
6149;SDS011;3106;42.670;23.318;2024-01-07T12:43:44;13.07;;;6.40;;
6149;SDS011;3106;42.670;23.318;2024-01-07T12:46:12;9.27;;;6.00;;
6149;SDS011;3106;42.670;23.318;2024-01-07T12:48:39;16.83;;;6.90;;
6149;SDS011;3106;42.670;23.318;2024-01-07T12:51:06;10.37;;;5.50;;
6149;SDS011;3106;42.670;23.318;2024-01-07T12:53:37;11.50;;;6.23;;
6149;SDS011;3106;42.670;23.318;2024-01-07T12:56:07;11.17;;;6.17;;
6149;SDS011;3106;42.670;23.318;2024-01-07T12:58:34;9.13;;;5.70;;
6149;SDS011;3106;42.670;23.318;2024-01-07T13:01:01;13.30;;;6.20;;
6149;SDS011;3106;42.670;23.318;2024-01-07T13:03:28;10.00;;;5.37;;
6149;SDS011;3106;42.670;23.318;2024-01-07T13:05:55;11.33;;;5.93;;
6149;SDS011;3106;42.670;23.318;2024-01-07T13:08:22;9.53;;;5.83;;
6149;SDS011;3106;42.670;23.318;2024-01-07T13:10:52;14.70;;;6.60;;
6149;SDS011;3106;42.670;23.318;2024-01-07T13:13:20;10.70;;;6.00;;
6149;SDS011;3106;42.670;23.318;2024-01-07T13:15:47;15.77;;;6.37;;
6149;SDS011;3106;42.670;23.318;2024-01-07T13:18:16;12.33;;;6.33;;
6149;SDS011;3106;42.670;23.318;2024-01-07T13:20:43;28.63;;;6.93;;
6149;SDS011;3106;42.670;23.318;2024-01-07T13:23:10;14.27;;;6.73;;
6149;SDS011;3106;42.670;23.318;2024-01-07T13:25:38;14.20;;;6.90;;
6149;SDS011;3106;42.670;23.318;2024-01-07T13:28:07;15.00;;;7.23;;
6149;SDS011;3106;42.670;23.318;2024-01-07T13:30:37;14.70;;;7.60;;
6149;SDS011;3106;42.670;23.318;2024-01-07T13:33:05;13.80;;;6.90;;
6149;SDS011;3106;42.670;23.318;2024-01-07T13:35:33;14.20;;;7.70;;
6149;SDS011;3106;42.670;23.318;2024-01-07T13:38:00;16.70;;;8.47;;
6149;SDS011;3106;42.670;23.318;2024-01-07T13:40:27;15.83;;;8.30;;
6149;SDS011;3106;42.670;23.318;2024-01-07T13:42:54;16.17;;;8.70;;
6149;SDS011;3106;42.670;23.318;2024-01-07T13:45:36;18.17;;;8.53;;
6149;SDS011;3106;42.670;23.318;2024-01-07T13:48:03;26.30;;;9.30;;
6149;SDS011;3106;42.670;23.318;2024-01-07T13:50:32;21.47;;;8.50;;
6149;SDS011;3106;42.670;23.318;2024-01-07T13:52:59;10.70;;;6.97;;
6149;SDS011;3106;42.670;23.318;2024-01-07T13:55:30;26.17;;;8.47;;
6149;SDS011;3106;42.670;23.318;2024-01-07T13:57:57;16.07;;;7.67;;
6149;SDS011;3106;42.670;23.318;2024-01-07T14:00:24;15.97;;;6.80;;
6149;SDS011;3106;42.670;23.318;2024-01-07T14:05:53;16.93;;;7.83;;
6149;SDS011;3106;42.670;23.318;2024-01-07T14:08:20;17.93;;;7.83;;
6149;SDS011;3106;42.670;23.318;2024-01-07T14:10:47;11.20;;;7.27;;
6149;SDS011;3106;42.670;23.318;2024-01-07T14:13:20;12.37;;;7.30;;
6149;SDS011;3106;42.670;23.318;2024-01-07T14:15:49;18.63;;;8.17;;
6149;SDS011;3106;42.670;23.318;2024-01-07T14:18:19;25.20;;;12.43;;
6149;SDS011;3106;42.670;23.318;2024-01-07T14:20:47;16.03;;;7.93;;
6149;SDS011;3106;42.670;23.318;2024-01-07T14:23:14;16.93;;;7.97;;
6149;SDS011;3106;42.670;23.318;2024-01-07T14:25:41;19.57;;;8.17;;
6149;SDS011;3106;42.670;23.318;2024-01-07T14:28:08;16.23;;;7.97;;
6149;SDS011;3106;42.670;23.318;2024-01-07T14:30:35;14.07;;;7.77;;
6149;SDS011;3106;42.670;23.318;2024-01-07T14:33:12;15.63;;;6.83;;
6149;SDS011;3106;42.670;23.318;2024-01-07T14:35:40;8.83;;;6.23;;
6149;SDS011;3106;42.670;23.318;2024-01-07T14:38:08;13.40;;;7.50;;
6149;SDS011;3106;42.670;23.318;2024-01-07T14:40:35;15.90;;;7.50;;
6149;SDS011;3106;42.670;23.318;2024-01-07T14:43:06;24.93;;;6.93;;
6149;SDS011;3106;42.670;23.318;2024-01-07T14:45:34;9.50;;;6.17;;
6149;SDS011;3106;42.670;23.318;2024-01-07T14:48:04;15.30;;;7.90;;
6149;SDS011;3106;42.670;23.318;2024-01-07T14:50:32;10.30;;;6.83;;
6149;SDS011;3106;42.670;23.318;2024-01-07T14:53:04;11.17;;;6.73;;
6149;SDS011;3106;42.670;23.318;2024-01-07T14:55:31;19.30;;;7.00;;
6149;SDS011;3106;42.670;23.318;2024-01-07T14:57:58;15.03;;;7.13;;
6149;SDS011;3106;42.670;23.318;2024-01-07T15:00:25;12.30;;;7.53;;